Time;durP1;ratioP1;P1;durP2;ratioP2;P2;SDS_P1;SDS_P2;PMS_P1;PMS_P2;Temp;Humidity;BMP_temperature;BMP_pressure;BME280_temperature;BME280_humidity;BME280_pressure;Samples;Min_cycle;Max_cycle;Signal;HPM_P1;HPM_P2
2023/08/25 00:00:09;;;;;;;0.13;0.13;;;25.90;93.80;;;;;;5059627;28;20293;-84
2023/08/25 00:02:34;;;;;;;0.00;0.00;;;25.80;93.80;;;;;;5078573;28;20319;-81
2023/08/25 00:05:00;;;;;;;0.00;0.00;;;25.60;94.90;;;;;;5074373;28;20024;-81
2023/08/25 00:07:26;;;;;;;0.23;0.23;;;25.70;95.40;;;;;;5068309;28;20992;-82
2023/08/25 00:09:51;;;;;;;0.10;0.10;;;25.60;96.20;;;;;;5082812;28;20103;-82
2023/08/25 00:12:17;;;;;;;0.20;0.20;;;25.50;97.20;;;;;;5078210;28;20051;-83
2023/08/25 00:14:42;;;;;;;0.00;0.00;;;25.40;98.00;;;;;;5084948;28;20883;-83
2023/08/25 00:17:08;;;;;;;0.00;0.00;;;25.30;98.80;;;;;;5083862;28;20093;-81
2023/08/25 00:19:34;;;;;;;0.70;0.17;;;25.40;99.20;;;;;;5065262;28;20271;-80
2023/08/25 00:22:00;;;;;;;0.03;0.03;;;25.20;99.60;;;;;;5065611;28;20035;-80
2023/08/25 00:24:26;;;;;;;1.38;0.80;;;25.10;99.90;;;;;;5082616;28;20019;-80
2023/08/25 00:26:52;;;;;;;0.10;0.10;;;25.10;99.90;;;;;;5082977;28;20074;-82
2023/08/25 00:29:20;;;;;;;0.40;0.40;;;25.00;99.90;;;;;;5078142;28;20532;-80
2023/08/25 00:31:45;;;;;;;0.38;0.30;;;25.00;99.90;;;;;;5061807;28;20036;-83
2023/08/25 00:34:11;;;;;;;0.00;0.00;;;24.90;99.90;;;;;;5078214;28;20048;-82
2023/08/25 00:36:37;;;;;;;1.55;1.15;;;24.90;99.90;;;;;;5073304;28;20250;-81
2023/08/25 00:39:03;;;;;;;0.00;0.00;;;24.80;99.90;;;;;;5067389;28;20089;-82
2023/08/25 00:41:28;;;;;;;0.20;0.10;;;24.80;99.90;;;;;;5073734;28;20055;-82
2023/08/25 00:43:54;;;;;;;9.68;1.85;;;24.80;99.90;;;;;;5053927;28;20548;-80
2023/08/25 00:46:21;;;;;;;0.47;0.47;;;24.70;99.90;;;;;;5081415;28;20036;-82
2023/08/25 00:48:47;;;;;;;;;;;24.70;99.90;;;;;;5068715;28;20837;-80
2023/08/25 00:51:13;;;;;;;;;;;24.60;99.90;;;;;;5071226;28;19953;-81
2023/08/25 00:53:40;;;;;;;0.35;0.35;;;24.60;99.90;;;;;;5049639;28;19912;-81
2023/08/25 00:56:08;;;;;;;0.05;0.05;;;24.60;99.90;;;;;;5084211;28;20024;-83
2023/08/25 00:58:34;;;;;;;1.75;1.30;;;24.70;99.90;;;;;;5084942;28;20086;-81
2023/08/25 01:01:03;;;;;;;0.35;0.35;;;24.60;99.90;;;;;;5082652;28;20024;-80
2023/08/25 01:03:29;;;;;;;5.18;0.65;;;24.50;99.90;;;;;;5082470;28;20028;-81
2023/08/25 01:05:55;;;;;;;0.10;0.10;;;24.60;99.90;;;;;;5079709;28;20067;-83
2023/08/25 01:08:22;;;;;;;0.10;0.10;;;24.60;99.90;;;;;;5084286;28;20721;-81
2023/08/25 01:11:19;;;;;;;0.38;0.38;;;24.60;99.90;;;;;;5083246;28;20024;-81
2023/08/25 01:13:57;;;;;;;1.17;0.32;;;24.50;99.90;;;;;;5082691;28;20048;-82
2023/08/25 01:16:34;;;;;;;0.20;0.20;;;24.40;99.90;;;;;;5077375;28;20507;-81
2023/08/25 01:19:02;;;;;;;14.13;1.23;;;24.20;99.90;;;;;;5081567;28;20795;-82
2023/08/25 01:21:29;;;;;;;0.28;0.25;;;24.30;99.90;;;;;;5079843;28;20020;-80
2023/08/25 01:24:09;;;;;;;0.00;0.00;;;24.20;99.90;;;;;;5076024;28;20034;-81
2023/08/25 01:26:37;;;;;;;0.00;0.00;;;24.10;99.90;;;;;;5083965;28;20032;-82
2023/08/25 01:29:03;;;;;;;0.25;0.25;;;24.00;99.90;;;;;;5080517;28;20103;-82
2023/08/25 01:31:29;;;;;;;0.37;0.37;;;24.00;99.90;;;;;;5064504;28;20144;-81
2023/08/25 01:33:55;;;;;;;0.32;0.32;;;24.00;99.90;;;;;;5084430;28;20020;-85
2023/08/25 01:36:29;;;;;;;0.10;0.10;;;24.10;99.90;;;;;;5065455;28;20040;-82
2023/08/25 01:39:06;;;;;;;0.10;0.10;;;24.00;99.90;;;;;;5082915;28;20699;-81
2023/08/25 01:41:33;;;;;;;0.20;0.20;;;23.90;99.90;;;;;;5050858;28;20740;-81
2023/08/25 01:44:03;;;;;;;0.10;0.10;;;23.90;99.90;;;;;;5058092;28;20024;-79
2023/08/25 01:46:30;;;;;;;0.15;0.15;;;23.80;99.90;;;;;;5083140;28;20024;-83
2023/08/25 01:48:58;;;;;;;0.00;0.00;;;23.70;99.90;;;;;;5062986;28;20036;-84
2023/08/25 01:51:25;;;;;;;0.00;0.00;;;23.70;99.90;;;;;;5080409;28;20390;-82
2023/08/25 01:53:55;;;;;;;0.00;0.00;;;23.70;99.90;;;;;;5065498;28;20038;-81
2023/08/25 01:56:21;;;;;;;0.63;0.63;;;23.70;99.90;;;;;;5083532;28;20024;-82
2023/08/25 01:58:47;;;;;;;0.00;0.00;;;23.70;99.90;;;;;;5065296;28;20024;-81
2023/08/25 02:01:12;;;;;;;0.73;0.67;;;23.70;99.90;;;;;;5072261;28;20028;-82
2023/08/25 02:03:38;;;;;;;0.00;0.00;;;23.70;99.90;;;;;;5083034;28;20553;-81
2023/08/25 02:06:03;;;;;;;0.50;0.27;;;23.70;99.90;;;;;;5082599;28;20253;-81
2023/08/25 02:08:29;;;;;;;0.10;0.10;;;23.70;99.90;;;;;;5078541;28;20062;-80
2023/08/25 02:10:55;;;;;;;0.00;0.00;;;23.70;99.90;;;;;;5081265;28;20027;-81
2023/08/25 02:13:21;;;;;;;0.00;0.00;;;23.70;99.90;;;;;;5074186;28;20869;-81
2023/08/25 02:15:48;;;;;;;0.00;0.00;;;23.70;99.90;;;;;;5074484;28;20471;-81
2023/08/25 02:18:14;;;;;;;0.10;0.10;;;23.80;99.90;;;;;;5072151;28;20104;-81
2023/08/25 02:20:40;;;;;;;0.00;0.00;;;24.10;99.90;;;;;;5076515;28;20028;-80
2023/08/25 02:23:07;;;;;;;0.00;0.00;;;24.20;99.90;;;;;;5079351;28;20032;-80
2023/08/25 02:25:33;;;;;;;0.10;0.10;;;24.10;99.90;;;;;;5068157;28;20016;-82
2023/08/25 02:27:59;;;;;;;0.05;0.05;;;24.20;99.90;;;;;;5062164;28;20036;-84
2023/08/25 02:30:25;;;;;;;0.00;0.00;;;23.70;99.90;;;;;;5064209;28;20549;-82
2023/08/25 02:32:50;;;;;;;0.00;0.00;;;23.80;99.90;;;;;;5069772;28;20025;-80
2023/08/25 02:35:16;;;;;;;0.50;0.40;;;23.90;99.90;;;;;;5083229;28;20434;-81
2023/08/25 02:38:01;;;;;;;1.17;0.75;;;23.70;99.90;;;;;;5068945;28;20024;-81
2023/08/25 02:40:27;;;;;;;0.20;0.10;;;23.60;99.90;;;;;;5082649;28;20039;-81
2023/08/25 02:42:59;;;;;;;0.00;0.00;;;23.70;99.90;;;;;;5081636;28;20395;-83
2023/08/25 02:45:25;;;;;;;0.10;0.10;;;23.80;99.90;;;;;;5074328;28;20031;-80
2023/08/25 02:47:52;;;;;;;0.35;0.10;;;24.00;99.90;;;;;;5080745;28;20107;-82
2023/08/25 02:50:19;;;;;;;0.00;0.00;;;23.90;99.90;;;;;;5066061;28;20549;-80
2023/08/25 02:52:44;;;;;;;;;;;23.90;99.90;;;;;;5052628;28;20035;-84
2023/08/25 02:55:11;;;;;;;0.17;0.17;;;23.80;99.90;;;;;;5071760;28;19909;-83
2023/08/25 02:57:37;;;;;;;0.00;0.00;;;23.90;99.90;;;;;;5073686;28;20677;-82
2023/08/25 03:00:04;;;;;;;0.43;0.30;;;23.90;99.90;;;;;;5064055;28;20024;-82
2023/08/25 03:02:31;;;;;;;0.10;0.10;;;24.00;99.90;;;;;;5074676;28;20614;-83
2023/08/25 03:04:57;;;;;;;0.93;0.88;;;24.00;99.90;;;;;;5075284;28;20086;-83
2023/08/25 03:07:22;;;;;;;0.10;0.10;;;24.10;99.90;;;;;;5074108;28;20028;-84
2023/08/25 03:09:48;;;;;;;0.00;0.00;;;24.10;99.90;;;;;;5070349;28;20029;-82
2023/08/25 03:12:14;;;;;;;0.10;0.10;;;24.10;99.90;;;;;;5074362;28;20655;-80
2023/08/25 03:14:39;;;;;;;0.00;0.00;;;24.00;99.90;;;;;;5072020;28;20028;-82
2023/08/25 03:17:05;;;;;;;0.00;0.00;;;23.90;99.90;;;;;;5070705;28;20052;-82
2023/08/25 03:19:31;;;;;;;0.00;0.00;;;23.70;99.90;;;;;;5073767;28;20020;-81
2023/08/25 03:21:57;;;;;;;0.00;0.00;;;23.60;99.90;;;;;;5075579;28;20177;-81
2023/08/25 03:24:22;;;;;;;0.00;0.00;;;23.70;99.90;;;;;;5060815;28;20024;-81
2023/08/25 03:26:48;;;;;;;0.25;0.25;;;23.60;99.90;;;;;;5076349;28;20020;-82
2023/08/25 03:29:14;;;;;;;0.20;0.20;;;23.70;99.90;;;;;;5081740;28;20637;-81
2023/08/25 03:31:39;;;;;;;0.37;0.37;;;23.60;99.90;;;;;;5081336;28;20027;-82
2023/08/25 03:34:05;;;;;;;0.00;0.00;;;23.60;99.90;;;;;;5072537;28;20086;-82
2023/08/25 03:36:31;;;;;;;0.00;0.00;;;23.60;99.90;;;;;;5086628;28;20752;-83
2023/08/25 03:38:57;;;;;;;0.00;0.00;;;23.50;99.90;;;;;;5086892;28;20254;-81
2023/08/25 03:41:22;;;;;;;0.00;0.00;;;23.40;99.90;;;;;;5073187;28;20024;-83
2023/08/25 03:43:48;;;;;;;1.40;1.13;;;23.30;99.90;;;;;;5086431;28;20055;-82
2023/08/25 03:46:14;;;;;;;0.00;0.00;;;23.40;99.90;;;;;;5081176;28;20036;-83
2023/08/25 03:48:39;;;;;;;0.00;0.00;;;23.30;99.90;;;;;;5078321;28;20416;-81
2023/08/25 03:51:05;;;;;;;0.00;0.00;;;23.30;99.90;;;;;;5085224;28;20023;-83
2023/08/25 03:53:31;;;;;;;0.00;0.00;;;23.40;99.90;;;;;;5074522;28;20052;-82
2023/08/25 03:55:56;;;;;;;0.23;0.10;;;23.20;99.90;;;;;;5084113;28;20020;-81
2023/08/25 03:58:22;;;;;;;0.00;0.00;;;23.20;99.90;;;;;;5085536;28;20028;-84
2023/08/25 04:00:54;;;;;;;0.00;0.00;;;23.20;99.90;;;;;;5082052;28;20093;-81
2023/08/25 04:03:21;;;;;;;0.10;0.10;;;23.40;99.90;;;;;;5062622;28;20035;-82
2023/08/25 04:05:47;;;;;;;1.55;1.02;;;23.30;99.90;;;;;;5080876;28;20019;-84
2023/08/25 04:08:12;;;;;;;0.00;0.00;;;23.20;99.90;;;;;;5072677;28;20453;-86
2023/08/25 04:10:41;;;;;;;0.00;0.00;;;23.20;99.90;;;;;;5086964;28;20077;-85
2023/08/25 04:13:07;;;;;;;0.00;0.00;;;23.20;99.90;;;;;;5075304;28;20527;-86
2023/08/25 04:15:33;;;;;;;0.00;0.00;;;23.10;99.90;;;;;;5081834;28;20048;-85
2023/08/25 04:17:59;;;;;;;0.00;0.00;;;23.10;99.90;;;;;;5068659;28;20025;-84
2023/08/25 04:20:25;;;;;;;0.07;0.07;;;23.00;99.90;;;;;;5074202;28;20024;-84
2023/08/25 04:22:50;;;;;;;0.00;0.00;;;23.00;99.90;;;;;;5067888;28;20254;-84
2023/08/25 04:25:16;;;;;;;8.70;3.53;;;23.00;99.90;;;;;;5085810;28;20020;-88
2023/08/25 04:27:42;;;;;;;0.00;0.00;;;23.00;99.90;;;;;;5085740;28;20027;-88
2023/08/25 04:30:08;;;;;;;0.00;0.00;;;23.00;99.90;;;;;;5087564;28;20040;-82
2023/08/25 04:32:34;;;;;;;0.28;0.15;;;22.90;99.90;;;;;;5079921;28;20475;-82
2023/08/25 04:35:00;;;;;;;0.10;0.10;;;22.80;99.90;;;;;;5064891;28;20032;-82
2023/08/25 04:37:25;;;;;;;0.15;0.15;;;22.80;99.90;;;;;;5070159;28;20092;-84
2023/08/25 04:39:52;;;;;;;0.20;0.20;;;22.60;99.90;;;;;;5058569;28;20533;-83
2023/08/25 04:42:18;;;;;;;0.20;0.20;;;22.50;99.90;;;;;;5077083;28;20154;-81
2023/08/25 04:44:44;;;;;;;0.00;0.00;;;22.60;99.90;;;;;;5081954;28;20115;-82
2023/08/25 04:47:10;;;;;;;0.00;0.00;;;22.60;99.90;;;;;;5079590;28;20028;-79
2023/08/25 04:49:35;;;;;;;0.03;0.03;;;22.60;99.90;;;;;;5064270;28;20035;-81
2023/08/25 04:52:01;;;;;;;0.20;0.20;;;22.60;99.90;;;;;;5080645;28;20274;-82
2023/08/25 04:54:27;;;;;;;0.33;0.20;;;22.50;99.90;;;;;;5067636;28;20073;-80
2023/08/25 04:56:53;;;;;;;0.00;0.00;;;22.70;99.90;;;;;;5073744;28;20025;-79
2023/08/25 04:59:18;;;;;;;1.43;0.33;;;22.40;99.90;;;;;;5081539;28;20028;-80
2023/08/25 05:01:44;;;;;;;0.50;0.40;;;22.60;99.90;;;;;;5085612;28;20028;-79
2023/08/25 05:04:11;;;;;;;3.47;1.20;;;22.40;99.90;;;;;;5085347;28;20475;-83
2023/08/25 05:06:37;;;;;;;0.08;0.08;;;22.50;99.90;;;;;;5084854;28;20031;-81
2023/08/25 05:09:03;;;;;;;0.25;0.25;;;22.20;99.90;;;;;;5054415;28;20574;-80
2023/08/25 05:11:29;;;;;;;0.00;0.00;;;22.30;99.90;;;;;;5078822;28;20387;-82
2023/08/25 05:13:55;;;;;;;1.55;1.35;;;22.50;99.90;;;;;;5078633;28;20474;-83
2023/08/25 05:16:21;;;;;;;0.03;0.03;;;22.40;99.90;;;;;;5080598;28;20059;-80
2023/08/25 05:18:46;;;;;;;0.00;0.00;;;22.50;99.90;;;;;;5061700;28;20032;-83
2023/08/25 05:21:14;;;;;;;0.00;0.00;;;22.20;99.90;;;;;;5066072;28;20055;-83
2023/08/25 05:23:42;;;;;;;3.63;0.45;;;21.80;99.90;;;;;;5074692;28;20172;-82
2023/08/25 05:26:08;;;;;;;0.00;0.00;;;21.60;99.90;;;;;;5081214;28;20020;-82
2023/08/25 05:28:34;;;;;;;0.00;0.00;;;21.70;99.90;;;;;;5055132;28;20042;-83
2023/08/25 05:30:59;;;;;;;0.00;0.00;;;21.80;99.90;;;;;;5078204;28;20027;-82
2023/08/25 05:33:25;;;;;;;4.20;0.67;;;21.90;99.90;;;;;;5083200;28;20411;-82
2023/08/25 05:35:51;;;;;;;0.00;0.00;;;22.10;99.90;;;;;;5080211;28;20027;-82
2023/08/25 05:38:16;;;;;;;0.10;0.10;;;22.20;99.90;;;;;;5078671;28;20082;-82
2023/08/25 05:40:42;;;;;;;0.10;0.10;;;22.10;99.90;;;;;;5060259;28;20080;-82
2023/08/25 05:43:08;;;;;;;0.00;0.00;;;22.30;99.90;;;;;;5081172;28;20035;-81
2023/08/25 05:45:33;;;;;;;1.93;0.60;;;21.40;99.90;;;;;;5074689;28;20157;-82
2023/08/25 05:47:59;;;;;;;0.00;0.00;;;21.70;99.90;;;;;;5076964;28;20066;-84
2023/08/25 05:50:25;;;;;;;0.00;0.00;;;21.50;99.90;;;;;;5047793;28;20111;-82
2023/08/25 05:52:53;;;;;;;0.23;0.23;;;21.40;99.90;;;;;;5075943;28;20099;-80
2023/08/25 05:55:19;;;;;;;2.30;1.35;;;20.80;99.90;;;;;;5081809;28;20016;-77
2023/08/25 05:57:45;;;;;;;0.08;0.08;;;20.80;99.90;;;;;;5052777;28;20031;-78
2023/08/25 06:00:11;;;;;;;0.53;0.30;;;21.00;99.90;;;;;;5072747;28;20033;-79
2023/08/25 06:02:36;;;;;;;0.08;0.08;;;20.60;99.90;;;;;;5072782;28;20123;-81
2023/08/25 06:05:03;;;;;;;0.20;0.20;;;20.80;99.90;;;;;;5066920;28;20372;-83
2023/08/25 06:07:28;;;;;;;0.00;0.00;;;20.90;99.90;;;;;;5060064;28;20027;-83
2023/08/25 06:09:54;;;;;;;0.30;0.30;;;20.90;99.90;;;;;;5077602;28;21389;-82
2023/08/25 06:12:20;;;;;;;0.00;0.00;;;21.10;99.90;;;;;;5059271;28;20614;-82
2023/08/25 06:14:46;;;;;;;0.00;0.00;;;21.40;99.90;;;;;;5080399;28;20020;-83
2023/08/25 06:17:12;;;;;;;0.10;0.10;;;21.60;99.90;;;;;;5072625;28;20533;-83
2023/08/25 06:19:38;;;;;;;0.00;0.00;;;21.40;99.90;;;;;;5077945;28;20375;-82
2023/08/25 06:22:03;;;;;;;0.17;0.17;;;21.30;99.90;;;;;;5081745;28;20035;-82
2023/08/25 06:24:29;;;;;;;0.20;0.20;;;21.40;99.90;;;;;;5078559;28;20975;-82
2023/08/25 06:26:55;;;;;;;0.20;0.20;;;21.70;99.90;;;;;;5053611;28;20044;-83
2023/08/25 06:29:21;;;;;;;0.00;0.00;;;22.00;99.90;;;;;;5060246;28;20059;-85
2023/08/25 06:31:46;;;;;;;0.00;0.00;;;22.00;99.90;;;;;;5072684;28;20021;-84
2023/08/25 06:34:12;;;;;;;0.00;0.00;;;22.10;99.90;;;;;;5060619;28;20032;-85
2023/08/25 06:36:38;;;;;;;0.00;0.00;;;22.00;99.90;;;;;;5076646;28;20026;-87
2023/08/25 06:39:03;;;;;;;0.83;0.83;;;21.80;99.90;;;;;;5078491;28;20039;-87
2023/08/25 06:41:30;;;;;;;0.00;0.00;;;21.60;99.90;;;;;;5073377;28;20123;-78
2023/08/25 06:43:57;;;;;;;0.00;0.00;;;21.50;99.90;;;;;;5081656;28;20023;-81
2023/08/25 06:46:23;;;;;;;0.30;0.25;;;21.70;99.90;;;;;;5076499;28;20494;-83
2023/08/25 06:48:50;;;;;;;0.00;0.00;;;21.70;99.90;;;;;;5075926;28;20031;-84
2023/08/25 06:51:15;;;;;;;0.00;0.00;;;21.50;99.90;;;;;;5081046;28;20075;-82
2023/08/25 06:53:41;;;;;;;0.00;0.00;;;21.40;99.90;;;;;;5062127;28;20032;-80
2023/08/25 06:56:07;;;;;;;0.10;0.10;;;21.60;99.90;;;;;;5053695;28;20029;-80
2023/08/25 06:58:33;;;;;;;1.13;1.13;;;22.10;99.90;;;;;;5080602;28;20035;-80
2023/08/25 07:00:59;;;;;;;0.20;0.20;;;22.20;99.90;;;;;;5081684;28;20032;-81
2023/08/25 07:03:24;;;;;;;0.00;0.00;;;22.10;99.90;;;;;;5063902;28;20028;-80
2023/08/25 07:05:57;;;;;;;3.73;2.73;;;22.40;99.90;;;;;;5052640;28;20113;-80
2023/08/25 07:08:22;;;;;;;0.30;0.30;;;22.30;99.90;;;;;;5063126;28;20039;-80
2023/08/25 07:10:48;;;;;;;2.43;0.43;;;22.30;99.90;;;;;;5063562;28;20020;-84
2023/08/25 07:13:14;;;;;;;0.00;0.00;;;22.70;99.90;;;;;;5054814;28;20051;-81
2023/08/25 07:15:40;;;;;;;0.00;0.00;;;23.40;99.90;;;;;;5078195;28;20032;-80
2023/08/25 07:18:05;;;;;;;0.00;0.00;;;25.30;99.90;;;;;;5084997;28;20487;-84
2023/08/25 07:20:31;;;;;;;0.28;0.28;;;25.50;99.90;;;;;;5064011;28;20027;-83
2023/08/25 07:22:57;;;;;;;0.00;0.00;;;24.00;99.90;;;;;;5055254;28;20047;-84
2023/08/25 07:25:22;;;;;;;0.37;0.33;;;25.50;99.90;;;;;;5081773;28;20066;-79
2023/08/25 07:27:48;;;;;;;0.22;0.22;;;25.90;99.90;;;;;;5077891;28;20024;-75
2023/08/25 07:30:14;;;;;;;0.00;0.00;;;24.30;99.90;;;;;;5079908;28;20383;-80
2023/08/25 07:32:39;;;;;;;0.00;0.00;;;23.80;99.90;;;;;;5085800;28;20428;-79
2023/08/25 07:35:05;;;;;;;2.20;1.13;;;23.20;99.90;;;;;;5075081;28;20025;-80
2023/08/25 07:37:31;;;;;;;1.67;1.27;;;22.90;99.90;;;;;;5083540;28;20023;-83
2023/08/25 07:39:57;;;;;;;0.20;0.20;;;22.70;99.90;;;;;;5082208;28;20040;-81
2023/08/25 07:42:23;;;;;;;0.95;0.47;;;22.40;99.90;;;;;;5077234;28;20024;-79
2023/08/25 07:44:49;;;;;;;0.10;0.10;;;22.30;99.90;;;;;;5081146;28;20493;-81
2023/08/25 07:47:15;;;;;;;0.00;0.00;;;22.30;99.90;;;;;;5079077;28;20035;-80
2023/08/25 07:49:41;;;;;;;0.00;0.00;;;22.10;99.90;;;;;;5079237;28;20031;-81
2023/08/25 07:52:07;;;;;;;0.10;0.10;;;22.10;99.90;;;;;;5080223;28;20635;-82
2023/08/25 07:54:32;;;;;;;0.00;0.00;;;22.10;99.90;;;;;;5065573;28;20103;-80
2023/08/25 07:56:58;;;;;;;0.93;0.63;;;22.00;99.90;;;;;;5076252;28;20296;-80
2023/08/25 07:59:24;;;;;;;0.00;0.00;;;22.10;99.90;;;;;;5084201;28;20063;-80
2023/08/25 08:01:52;;;;;;;0.00;0.00;;;22.20;99.90;;;;;;5078704;28;20024;-79
2023/08/25 08:04:18;;;;;;;11.88;4.57;;;22.10;99.90;;;;;;5080430;28;20028;-80
2023/08/25 08:06:44;;;;;;;9.30;1.27;;;22.10;99.90;;;;;;5074291;28;20047;-80
2023/08/25 08:09:10;;;;;;;0.00;0.00;;;22.20;99.90;;;;;;5081550;28;20039;-81
2023/08/25 08:11:36;;;;;;;0.20;0.20;;;22.10;99.90;;;;;;5056698;28;20017;-81
2023/08/25 08:14:02;;;;;;;0.00;0.00;;;22.30;99.90;;;;;;5075902;28;20036;-79
2023/08/25 08:16:29;;;;;;;0.00;0.00;;;22.30;99.90;;;;;;5061113;28;20853;-81
2023/08/25 08:18:54;;;;;;;0.45;0.45;;;22.30;99.90;;;;;;5082666;28;20024;-77
2023/08/25 08:21:20;;;;;;;0.10;0.10;;;22.30;99.90;;;;;;5085014;28;20016;-77
2023/08/25 08:23:46;;;;;;;0.00;0.00;;;22.30;99.90;;;;;;5078166;28;20850;-77
2023/08/25 08:26:11;;;;;;;0.20;0.20;;;22.40;99.90;;;;;;5082745;28;20060;-80
2023/08/25 08:28:37;;;;;;;0.00;0.00;;;22.30;99.90;;;;;;5083870;28;20390;-79
2023/08/25 08:31:05;;;;;;;0.00;0.00;;;22.30;99.90;;;;;;5083125;28;20466;-79
2023/08/25 08:33:34;;;;;;;0.00;0.00;;;22.40;99.90;;;;;;5080826;28;20027;-78
2023/08/25 08:36:00;;;;;;;0.10;0.10;;;22.50;99.90;;;;;;5065490;28;20024;-78
2023/08/25 08:38:26;;;;;;;0.00;0.00;;;22.60;99.90;;;;;;5080975;28;20424;-78
2023/08/25 08:40:52;;;;;;;1.00;1.00;;;22.60;99.90;;;;;;5082710;28;20024;-78
2023/08/25 08:43:18;;;;;;;;;;;22.60;99.90;;;;;;5083384;28;20278;-78
2023/08/25 08:45:45;;;;;;;;;;;22.70;99.90;;;;;;5064327;28;19912;-77
2023/08/25 08:48:13;;;;;;;0.00;0.00;;;22.90;99.90;;;;;;5082237;28;19927;-76
2023/08/25 08:50:41;;;;;;;0.00;0.00;;;23.00;99.90;;;;;;5081752;28;20570;-79
2023/08/25 08:53:08;;;;;;;0.00;0.00;;;23.20;99.90;;;;;;5083621;28;20024;-80
2023/08/25 08:55:34;;;;;;;;;;;23.20;99.90;;;;;;5070487;28;20032;-78
2023/08/25 09:01:22;;;;;;;0.03;0.03;;;23.20;99.90;;;;;;5084427;28;20035;-78
2023/08/25 09:03:50;;;;;;;0.00;0.00;;;23.40;99.90;;;;;;5077848;28;20025;-78
2023/08/25 09:06:16;;;;;;;0.35;0.35;;;23.30;99.90;;;;;;5076314;28;20039;-79
2023/08/25 09:08:43;;;;;;;0.13;0.13;;;23.30;99.90;;;;;;5082908;28;20055;-78
2023/08/25 09:11:09;;;;;;;0.03;0.03;;;23.30;99.90;;;;;;5082612;28;20065;-77
2023/08/25 09:13:35;;;;;;;0.00;0.00;;;23.40;99.90;;;;;;5081325;28;20028;-79
2023/08/25 09:16:13;;;;;;;0.00;0.00;;;23.40;99.90;;;;;;5083960;28;20765;-83
2023/08/25 09:18:39;;;;;;;0.00;0.00;;;23.70;99.90;;;;;;5084539;28;20517;-77
2023/08/25 09:21:16;;;;;;;0.00;0.00;;;23.70;99.90;;;;;;5085688;28;20024;-81
2023/08/25 09:23:54;;;;;;;;;;;23.70;99.90;;;;;;5082890;28;20021;-81
2023/08/25 09:26:20;;;;;;;0.00;0.00;;;23.40;99.90;;;;;;5078261;28;20462;-77
2023/08/25 09:28:46;;;;;;;0.00;0.00;;;23.50;99.90;;;;;;5080469;28;20025;-77
2023/08/25 09:31:22;;;;;;;0.00;0.00;;;23.50;99.90;;;;;;5073952;28;20034;-77
2023/08/25 09:33:50;;;;;;;0.10;0.10;;;23.60;99.90;;;;;;5083270;28;20116;-76
2023/08/25 09:36:16;;;;;;;0.00;0.00;;;23.80;99.90;;;;;;5085133;28;20244;-75
2023/08/25 09:38:46;;;;;;;0.00;0.00;;;24.00;99.90;;;;;;5084584;28;20023;-81
2023/08/25 09:41:16;;;;;;;0.00;0.00;;;23.90;99.90;;;;;;5084653;28;20036;-77
2023/08/25 09:43:42;;;;;;;0.00;0.00;;;23.80;99.90;;;;;;5082645;28;20024;-75
2023/08/25 09:46:08;;;;;;;0.00;0.00;;;23.60;99.90;;;;;;5081556;28;20032;-81
2023/08/25 09:48:35;;;;;;;;;;;23.40;99.90;;;;;;5084536;28;20040;-80
2023/08/25 09:51:01;;;;;;;0.00;0.00;;;23.10;99.90;;;;;;5067131;28;19908;-78
2023/08/25 09:53:33;;;;;;;0.00;0.00;;;22.80;99.90;;;;;;5079464;28;20035;-78
2023/08/25 09:56:06;;;;;;;0.77;0.43;;;22.90;99.90;;;;;;5073425;28;20032;-78
2023/08/25 09:58:34;;;;;;;0.00;0.00;;;23.00;99.90;;;;;;5080888;28;20028;-78
2023/08/25 10:01:00;;;;;;;2.20;1.45;;;23.10;99.90;;;;;;5063057;28;20031;-76
2023/08/25 10:03:26;;;;;;;;;;;23.30;99.90;;;;;;5081794;28;20027;-75
2023/08/25 10:05:52;;;;;;;4.95;3.10;;;23.40;99.90;;;;;;5070764;28;19923;-77
2023/08/25 10:08:19;;;;;;;0.00;0.00;;;23.40;99.90;;;;;;5083517;28;20145;-76
2023/08/25 10:10:45;;;;;;;0.10;0.10;;;23.50;99.90;;;;;;5083593;28;20024;-74
2023/08/25 10:13:17;;;;;;;0.20;0.20;;;23.60;99.90;;;;;;5072080;28;20064;-78
2023/08/25 10:15:45;;;;;;;0.00;0.00;;;23.70;99.90;;;;;;5064710;28;20036;-81
2023/08/25 10:18:12;;;;;;;0.00;0.00;;;23.90;99.90;;;;;;5082938;28;20390;-77
2023/08/25 10:20:39;;;;;;;0.00;0.00;;;23.90;99.90;;;;;;5083659;28;20544;-76
2023/08/25 10:23:06;;;;;;;0.00;0.00;;;24.00;99.90;;;;;;5079496;28;20023;-77
2023/08/25 10:25:33;;;;;;;0.00;0.00;;;24.00;99.90;;;;;;5083196;28;20020;-82
2023/08/25 10:28:01;;;;;;;0.20;0.20;;;23.90;99.90;;;;;;5080565;28;20024;-78
2023/08/25 10:30:28;;;;;;;0.60;0.60;;;23.80;99.90;;;;;;5073631;28;20020;-78
2023/08/25 10:32:59;;;;;;;;;;;23.70;99.90;;;;;;5081322;28;20064;-75
2023/08/25 10:35:46;;;;;;;0.13;0.13;;;23.40;99.90;;;;;;5064824;28;19904;-76
2023/08/25 10:38:18;;;;;;;0.00;0.00;;;23.50;99.90;;;;;;5083268;28;20020;-77
2023/08/25 10:40:50;;;;;;;1.40;1.13;;;23.40;99.90;;;;;;5075385;28;20020;-75
2023/08/25 10:43:27;;;;;;;0.00;0.00;;;23.60;99.90;;;;;;5080545;28;20024;-77
2023/08/25 10:45:53;;;;;;;0.00;0.00;;;23.50;99.90;;;;;;5075811;28;20027;-81
2023/08/25 10:48:23;;;;;;;0.00;0.00;;;23.70;99.90;;;;;;5082949;28;20044;-76
2023/08/25 10:50:52;;;;;;;0.15;0.15;;;23.50;99.90;;;;;;5083334;28;20020;-79
2023/08/25 10:53:39;;;;;;;0.00;0.00;;;23.70;99.90;;;;;;5081509;28;20052;-80
2023/08/25 10:56:24;;;;;;;0.57;0.57;;;23.70;99.90;;;;;;5059791;28;20788;-80
2023/08/25 10:58:56;;;;;;;0.00;0.00;;;23.70;99.90;;;;;;5077298;28;20048;-78
2023/08/25 11:01:54;;;;;;;0.13;0.13;;;23.70;99.90;;;;;;5061337;28;20020;-79
2023/08/25 11:04:29;;;;;;;0.00;0.00;;;23.70;99.90;;;;;;5060918;28;20074;-77
2023/08/25 11:06:56;;;;;;;0.22;0.20;;;23.70;99.90;;;;;;5079331;28;20040;-77
2023/08/25 11:09:24;;;;;;;0.35;0.30;;;23.70;99.90;;;;;;5082138;28;20029;-78
2023/08/25 11:12:05;;;;;;;0.08;0.08;;;23.80;99.90;;;;;;5082946;28;20018;-81
2023/08/25 11:14:39;;;;;;;0.00;0.00;;;23.60;99.90;;;;;;5083597;28;20023;-82
2023/08/25 11:17:09;;;;;;;0.00;0.00;;;23.70;99.90;;;;;;5056563;28;20474;-80
2023/08/25 11:19:38;;;;;;;0.00;0.00;;;23.70;99.90;;;;;;5082102;28;20029;-81
2023/08/25 11:22:05;;;;;;;0.00;0.00;;;23.60;99.90;;;;;;5061279;28;20110;-80
2023/08/25 11:24:32;;;;;;;0.30;0.30;;;23.60;99.90;;;;;;5083454;28;20020;-77
2023/08/25 11:27:09;;;;;;;0.35;0.35;;;23.60;99.90;;;;;;5075690;28;20421;-82
2023/08/25 11:29:35;;;;;;;0.10;0.10;;;23.70;99.90;;;;;;5076798;28;20093;-80
2023/08/25 11:32:02;;;;;;;0.10;0.10;;;23.80;99.90;;;;;;5082587;28;20024;-80
2023/08/25 11:34:32;;;;;;;0.00;0.00;;;23.90;99.90;;;;;;5076211;28;20032;-79
2023/08/25 11:36:58;;;;;;;0.90;0.90;;;23.80;99.90;;;;;;5077129;28;20094;-79
2023/08/25 11:39:24;;;;;;;0.00;0.00;;;24.00;99.90;;;;;;5081838;28;20035;-81
2023/08/25 11:41:54;;;;;;;0.65;0.65;;;24.00;99.90;;;;;;5059743;28;20039;-79
2023/08/25 11:44:20;;;;;;;0.00;0.00;;;24.10;99.90;;;;;;5050790;28;20153;-79
2023/08/25 11:46:45;;;;;;;0.00;0.00;;;24.10;99.90;;;;;;5080136;28;20440;-79
2023/08/25 11:49:11;;;;;;;0.15;0.15;;;24.40;99.90;;;;;;5080456;28;20271;-81
2023/08/25 11:51:39;;;;;;;0.00;0.00;;;24.60;99.90;;;;;;5081061;28;20027;-81
2023/08/25 11:54:04;;;;;;;0.03;0.03;;;24.80;99.90;;;;;;5082674;28;20037;-81
2023/08/25 11:56:30;;;;;;;0.00;0.00;;;24.90;99.90;;;;;;5077133;28;20499;-80
2023/08/25 11:58:56;;;;;;;0.00;0.00;;;25.00;99.90;;;;;;5081955;28;20485;-79
2023/08/25 12:01:22;;;;;;;0.00;0.00;;;25.50;99.90;;;;;;5072497;28;20024;-81
2023/08/25 12:03:47;;;;;;;0.00;0.00;;;26.00;99.90;;;;;;5083933;28;20250;-82
2023/08/25 12:06:15;;;;;;;0.00;0.00;;;26.70;99.10;;;;;;5075458;28;20354;-83
2023/08/25 12:08:41;;;;;;;0.00;0.00;;;27.00;97.90;;;;;;5063201;28;20291;-83
2023/08/25 12:11:09;;;;;;;0.00;0.00;;;27.00;97.10;;;;;;5063653;28;20024;-79
2023/08/25 12:13:40;;;;;;;0.00;0.00;;;27.10;96.80;;;;;;5079687;28;20025;-81
2023/08/25 12:16:06;;;;;;;0.00;0.00;;;26.80;98.00;;;;;;5084973;28;20494;-81
2023/08/25 12:18:37;;;;;;;1.00;1.00;;;26.40;99.00;;;;;;5073588;28;20025;-81
2023/08/25 12:21:05;;;;;;;0.55;0.55;;;26.30;99.20;;;;;;5074372;28;20037;-81
2023/08/25 12:23:38;;;;;;;0.15;0.15;;;25.90;97.30;;;;;;5080807;28;20012;-77
2023/08/25 12:26:13;;;;;;;2.33;1.40;;;26.40;97.80;;;;;;5085623;28;20046;-78
2023/08/25 12:28:40;;;;;;;0.00;0.00;;;26.70;97.00;;;;;;5061722;28;20031;-80
2023/08/25 12:31:05;;;;;;;2.30;0.93;;;26.70;97.30;;;;;;5084145;28;20103;-79
2023/08/25 12:33:31;;;;;;;0.00;0.00;;;27.30;98.60;;;;;;5078496;28;20127;-78
2023/08/25 12:36:00;;;;;;;0.00;0.00;;;27.30;98.00;;;;;;5075972;28;20777;-80
2023/08/25 12:38:26;;;;;;;0.00;0.00;;;27.10;94.50;;;;;;5083585;28;20034;-78
2023/08/25 12:40:51;;;;;;;0.00;0.00;;;26.80;93.80;;;;;;5085228;28;20478;-78
2023/08/25 12:43:17;;;;;;;0.00;0.00;;;26.50;96.60;;;;;;5084567;28;20028;-79
2023/08/25 12:45:43;;;;;;;0.17;0.17;;;26.50;96.90;;;;;;5057804;28;20025;-78
2023/08/25 12:48:08;;;;;;;0.10;0.10;;;26.40;96.60;;;;;;5073975;28;20866;-79
2023/08/25 12:50:35;;;;;;;0.43;0.40;;;26.80;97.30;;;;;;5067543;28;20374;-77
2023/08/25 12:53:01;;;;;;;0.00;0.00;;;26.80;97.00;;;;;;5084542;28;20073;-77